sensor_id;sensor_type;location;lat;lon;timestamp;temperature;humidity
3705;DHT22;1868;48.918;9.438;2023-02-19T00:01:56;9.50;97.40
3705;DHT22;1868;48.918;9.438;2023-02-19T00:04:25;9.50;97.40
3705;DHT22;1868;48.918;9.438;2023-02-19T00:06:53;9.60;97.40
3705;DHT22;1868;48.918;9.438;2023-02-19T00:09:21;9.50;97.40
3705;DHT22;1868;48.918;9.438;2023-02-19T00:11:50;9.60;97.40
3705;DHT22;1868;48.918;9.438;2023-02-19T00:14:20;9.50;97.40
3705;DHT22;1868;48.918;9.438;2023-02-19T00:16:49;9.50;97.40
3705;DHT22;1868;48.918;9.438;2023-02-19T00:19:20;9.50;97.40
3705;DHT22;1868;48.918;9.438;2023-02-19T00:21:50;9.60;97.40
3705;DHT22;1868;48.918;9.438;2023-02-19T00:24:20;9.60;97.40
3705;DHT22;1868;48.918;9.438;2023-02-19T00:26:48;9.60;97.40
3705;DHT22;1868;48.918;9.438;2023-02-19T00:29:19;9.60;97.40
3705;DHT22;1868;48.918;9.438;2023-02-19T00:31:48;9.60;97.40
3705;DHT22;1868;48.918;9.438;2023-02-19T00:34:17;9.60;97.40
3705;DHT22;1868;48.918;9.438;2023-02-19T00:36:46;9.60;97.40
3705;DHT22;1868;48.918;9.438;2023-02-19T00:39:15;9.60;97.40
3705;DHT22;1868;48.918;9.438;2023-02-19T00:41:44;9.60;97.40
3705;DHT22;1868;48.918;9.438;2023-02-19T00:44:13;9.60;97.40
3705;DHT22;1868;48.918;9.438;2023-02-19T00:46:45;9.60;97.40
3705;DHT22;1868;48.918;9.438;2023-02-19T00:49:17;9.60;97.40
3705;DHT22;1868;48.918;9.438;2023-02-19T00:51:47;9.60;97.40
3705;DHT22;1868;48.918;9.438;2023-02-19T00:54:17;9.60;97.40
3705;DHT22;1868;48.918;9.438;2023-02-19T00:56:46;9.60;97.40
3705;DHT22;1868;48.918;9.438;2023-02-19T00:59:15;9.60;97.40
3705;DHT22;1868;48.918;9.438;2023-02-19T01:01:44;9.60;97.40
3705;DHT22;1868;48.918;9.438;2023-02-19T01:04:13;9.60;97.40
3705;DHT22;1868;48.918;9.438;2023-02-19T01:06:42;9.60;97.40
3705;DHT22;1868;48.918;9.438;2023-02-19T01:09:10;9.70;97.40
3705;DHT22;1868;48.918;9.438;2023-02-19T01:11:40;9.70;97.40
3705;DHT22;1868;48.918;9.438;2023-02-19T01:14:09;9.70;97.40
3705;DHT22;1868;48.918;9.438;2023-02-19T01:16:37;9.70;97.40
3705;DHT22;1868;48.918;9.438;2023-02-19T01:19:07;9.70;97.40
3705;DHT22;1868;48.918;9.438;2023-02-19T01:21:35;9.60;97.40
3705;DHT22;1868;48.918;9.438;2023-02-19T01:24:04;9.60;97.40
3705;DHT22;1868;48.918;9.438;2023-02-19T01:26:33;9.60;97.40
3705;DHT22;1868;48.918;9.438;2023-02-19T01:29:02;9.60;97.40
3705;DHT22;1868;48.918;9.438;2023-02-19T01:31:30;9.60;97.40
3705;DHT22;1868;48.918;9.438;2023-02-19T01:34:02;9.60;97.40
3705;DHT22;1868;48.918;9.438;2023-02-19T01:36:33;9.50;97.40
3705;DHT22;1868;48.918;9.438;2023-02-19T01:39:04;9.60;97.40
3705;DHT22;1868;48.918;9.438;2023-02-19T01:41:36;9.60;97.40
3705;DHT22;1868;48.918;9.438;2023-02-19T01:44:56;9.60;97.40
3705;DHT22;1868;48.918;9.438;2023-02-19T01:47:16;9.60;97.40
3705;DHT22;1868;48.918;9.438;2023-02-19T01:49:48;9.60;97.40
3705;DHT22;1868;48.918;9.438;2023-02-19T01:52:23;9.60;97.40
3705;DHT22;1868;48.918;9.438;2023-02-19T01:54:56;9.60;97.40
3705;DHT22;1868;48.918;9.438;2023-02-19T01:57:28;9.60;97.40
3705;DHT22;1868;48.918;9.438;2023-02-19T02:00:04;9.60;97.40
3705;DHT22;1868;48.918;9.438;2023-02-19T02:02:42;9.60;97.40
3705;DHT22;1868;48.918;9.438;2023-02-19T02:05:16;9.60;97.40
3705;DHT22;1868;48.918;9.438;2023-02-19T02:07:51;9.60;97.40
3705;DHT22;1868;48.918;9.438;2023-02-19T02:10:42;9.50;97.40
3705;DHT22;1868;48.918;9.438;2023-02-19T02:13:11;9.60;97.40
3705;DHT22;1868;48.918;9.438;2023-02-19T02:15:49;9.60;97.40
3705;DHT22;1868;48.918;9.438;2023-02-19T02:18:27;9.60;97.40
3705;DHT22;1868;48.918;9.438;2023-02-19T02:21:17;9.60;97.40
3705;DHT22;1868;48.918;9.438;2023-02-19T02:24:34;9.60;97.40
3705;DHT22;1868;48.918;9.438;2023-02-19T02:30:30;9.60;97.40
3705;DHT22;1868;48.918;9.438;2023-02-19T02:33:09;9.60;97.40
3705;DHT22;1868;48.918;9.438;2023-02-19T02:35:44;9.60;97.40
3705;DHT22;1868;48.918;9.438;2023-02-19T02:38:17;9.60;97.40
3705;DHT22;1868;48.918;9.438;2023-02-19T02:40:47;9.60;97.40
3705;DHT22;1868;48.918;9.438;2023-02-19T02:43:16;9.60;97.40
3705;DHT22;1868;48.918;9.438;2023-02-19T02:45:46;9.60;97.40
3705;DHT22;1868;48.918;9.438;2023-02-19T02:48:33;9.70;97.40
3705;DHT22;1868;48.918;9.438;2023-02-19T02:51:08;9.70;97.40
3705;DHT22;1868;48.918;9.438;2023-02-19T02:53:49;9.70;97.40
3705;DHT22;1868;48.918;9.438;2023-02-19T02:56:39;9.60;97.40
3705;DHT22;1868;48.918;9.438;2023-02-19T02:59:11;9.60;97.40
3705;DHT22;1868;48.918;9.438;2023-02-19T03:01:44;9.70;97.40
3705;DHT22;1868;48.918;9.438;2023-02-19T03:04:36;9.60;97.40
3705;DHT22;1868;48.918;9.438;2023-02-19T03:07:32;9.60;97.40
3705;DHT22;1868;48.918;9.438;2023-02-19T03:10:05;9.60;97.40
3705;DHT22;1868;48.918;9.438;2023-02-19T03:12:36;9.60;97.40
3705;DHT22;1868;48.918;9.438;2023-02-19T03:19:02;9.60;97.40
3705;DHT22;1868;48.918;9.438;2023-02-19T03:21:51;9.60;97.40
3705;DHT22;1868;48.918;9.438;2023-02-19T03:24:25;9.60;97.40
3705;DHT22;1868;48.918;9.438;2023-02-19T03:27:14;9.60;97.40
3705;DHT22;1868;48.918;9.438;2023-02-19T03:29:51;9.60;97.40
3705;DHT22;1868;48.918;9.438;2023-02-19T03:32:26;9.60;97.40
3705;DHT22;1868;48.918;9.438;2023-02-19T03:35:02;9.60;97.40
3705;DHT22;1868;48.918;9.438;2023-02-19T03:37:36;9.60;97.40
3705;DHT22;1868;48.918;9.438;2023-02-19T03:40:09;9.60;97.40
3705;DHT22;1868;48.918;9.438;2023-02-19T03:42:42;9.60;97.40
3705;DHT22;1868;48.918;9.438;2023-02-19T03:45:27;9.60;97.40
3705;DHT22;1868;48.918;9.438;2023-02-19T03:48:12;9.60;97.40
3705;DHT22;1868;48.918;9.438;2023-02-19T03:50:51;9.60;97.40
3705;DHT22;1868;48.918;9.438;2023-02-19T03:53:30;9.60;97.40
3705;DHT22;1868;48.918;9.438;2023-02-19T03:56:33;9.60;97.40
3705;DHT22;1868;48.918;9.438;2023-02-19T03:59:09;9.60;97.40
3705;DHT22;1868;48.918;9.438;2023-02-19T04:01:43;9.60;97.40
3705;DHT22;1868;48.918;9.438;2023-02-19T04:04:17;9.50;97.40
3705;DHT22;1868;48.918;9.438;2023-02-19T04:06:52;9.50;97.40
3705;DHT22;1868;48.918;9.438;2023-02-19T04:09:23;9.60;97.40
3705;DHT22;1868;48.918;9.438;2023-02-19T04:11:59;9.60;97.40
3705;DHT22;1868;48.918;9.438;2023-02-19T04:14:32;9.60;97.40
3705;DHT22;1868;48.918;9.438;2023-02-19T04:17:07;9.70;97.40
3705;DHT22;1868;48.918;9.438;2023-02-19T04:19:41;9.60;97.40
3705;DHT22;1868;48.918;9.438;2023-02-19T04:22:11;9.60;97.40
3705;DHT22;1868;48.918;9.438;2023-02-19T04:24:42;9.60;97.40
3705;DHT22;1868;48.918;9.438;2023-02-19T04:27:14;9.60;97.40
3705;DHT22;1868;48.918;9.438;2023-02-19T04:29:42;9.60;97.40
3705;DHT22;1868;48.918;9.438;2023-02-19T04:32:12;9.60;97.40
3705;DHT22;1868;48.918;9.438;2023-02-19T04:34:40;9.50;97.40
3705;DHT22;1868;48.918;9.438;2023-02-19T04:37:10;9.50;97.40
3705;DHT22;1868;48.918;9.438;2023-02-19T04:39:39;9.50;97.40
3705;DHT22;1868;48.918;9.438;2023-02-19T04:42:09;9.50;97.40
3705;DHT22;1868;48.918;9.438;2023-02-19T04:44:38;9.50;97.40
3705;DHT22;1868;48.918;9.438;2023-02-19T04:47:06;9.40;97.40
3705;DHT22;1868;48.918;9.438;2023-02-19T04:49:35;9.40;97.40
3705;DHT22;1868;48.918;9.438;2023-02-19T04:52:04;9.40;97.40
3705;DHT22;1868;48.918;9.438;2023-02-19T04:54:34;9.40;97.40
3705;DHT22;1868;48.918;9.438;2023-02-19T04:57:02;9.30;97.40
3705;DHT22;1868;48.918;9.438;2023-02-19T04:59:30;9.30;97.40
3705;DHT22;1868;48.918;9.438;2023-02-19T05:01:59;9.30;97.40
3705;DHT22;1868;48.918;9.438;2023-02-19T05:04:27;9.30;97.40
3705;DHT22;1868;48.918;9.438;2023-02-19T05:06:55;9.30;97.40
3705;DHT22;1868;48.918;9.438;2023-02-19T05:09:24;9.30;97.40
3705;DHT22;1868;48.918;9.438;2023-02-19T05:11:53;9.30;97.40
3705;DHT22;1868;48.918;9.438;2023-02-19T05:14:22;9.20;97.40
3705;DHT22;1868;48.918;9.438;2023-02-19T05:16:50;9.20;97.40
3705;DHT22;1868;48.918;9.438;2023-02-19T05:19:18;9.20;97.40
3705;DHT22;1868;48.918;9.438;2023-02-19T05:21:46;9.20;97.40
3705;DHT22;1868;48.918;9.438;2023-02-19T05:24:15;9.20;97.40
3705;DHT22;1868;48.918;9.438;2023-02-19T05:26:43;9.10;97.40
3705;DHT22;1868;48.918;9.438;2023-02-19T05:29:12;9.10;97.40
3705;DHT22;1868;48.918;9.438;2023-02-19T05:31:41;9.10;97.40
3705;DHT22;1868;48.918;9.438;2023-02-19T05:34:09;9.20;97.40
3705;DHT22;1868;48.918;9.438;2023-02-19T05:36:38;9.10;97.40
3705;DHT22;1868;48.918;9.438;2023-02-19T05:39:08;9.20;97.40
3705;DHT22;1868;48.918;9.438;2023-02-19T05:41:38;9.20;97.40
3705;DHT22;1868;48.918;9.438;2023-02-19T05:44:08;9.20;97.40
3705;DHT22;1868;48.918;9.438;2023-02-19T05:46:39;9.20;97.40
3705;DHT22;1868;48.918;9.438;2023-02-19T05:49:07;9.20;97.40
3705;DHT22;1868;48.918;9.438;2023-02-19T05:51:35;9.20;97.40
3705;DHT22;1868;48.918;9.438;2023-02-19T05:54:04;9.20;97.40
3705;DHT22;1868;48.918;9.438;2023-02-19T05:56:34;9.20;97.40
3705;DHT22;1868;48.918;9.438;2023-02-19T05:59:04;9.20;97.40
3705;DHT22;1868;48.918;9.438;2023-02-19T06:01:34;9.10;97.40
3705;DHT22;1868;48.918;9.438;2023-02-19T06:04:04;9.10;97.40
3705;DHT22;1868;48.918;9.438;2023-02-19T06:06:33;9.10;97.40
3705;DHT22;1868;48.918;9.438;2023-02-19T06:09:01;9.10;97.40
3705;DHT22;1868;48.918;9.438;2023-02-19T06:11:29;9.10;97.40
3705;DHT22;1868;48.918;9.438;2023-02-19T06:13:58;9.10;97.40
3705;DHT22;1868;48.918;9.438;2023-02-19T06:16:26;9.10;97.40
3705;DHT22;1868;48.918;9.438;2023-02-19T06:18:55;9.00;97.40
3705;DHT22;1868;48.918;9.438;2023-02-19T06:21:24;9.00;97.40
3705;DHT22;1868;48.918;9.438;2023-02-19T06:23:53;9.00;97.40
3705;DHT22;1868;48.918;9.438;2023-02-19T06:26:23;9.00;97.40
3705;DHT22;1868;48.918;9.438;2023-02-19T06:28:52;9.10;97.40
3705;DHT22;1868;48.918;9.438;2023-02-19T06:31:21;9.10;97.40
3705;DHT22;1868;48.918;9.438;2023-02-19T06:33:50;9.10;97.40
3705;DHT22;1868;48.918;9.438;2023-02-19T06:36:19;9.10;97.40
3705;DHT22;1868;48.918;9.438;2023-02-19T06:38:49;9.10;97.40
3705;DHT22;1868;48.918;9.438;2023-02-19T06:41:20;9.10;97.40
3705;DHT22;1868;48.918;9.438;2023-02-19T06:43:48;9.10;97.40
3705;DHT22;1868;48.918;9.438;2023-02-19T06:46:17;9.10;97.40
3705;DHT22;1868;48.918;9.438;2023-02-19T06:48:45;9.10;97.40
3705;DHT22;1868;48.918;9.438;2023-02-19T06:51:15;9.10;97.40
3705;DHT22;1868;48.918;9.438;2023-02-19T06:53:49;9.20;97.40
3705;DHT22;1868;48.918;9.438;2023-02-19T06:56:22;9.20;97.40
3705;DHT22;1868;48.918;9.438;2023-02-19T06:58:52;9.10;97.40
3705;DHT22;1868;48.918;9.438;2023-02-19T07:01:22;9.20;97.40
3705;DHT22;1868;48.918;9.438;2023-02-19T07:03:50;9.20;97.40
3705;DHT22;1868;48.918;9.438;2023-02-19T07:06:19;9.20;97.40
3705;DHT22;1868;48.918;9.438;2023-02-19T07:08:51;9.20;97.40
3705;DHT22;1868;48.918;9.438;2023-02-19T07:11:20;9.30;97.40
3705;DHT22;1868;48.918;9.438;2023-02-19T07:13:53;9.30;97.40
3705;DHT22;1868;48.918;9.438;2023-02-19T07:16:22;9.40;97.40
3705;DHT22;1868;48.918;9.438;2023-02-19T07:18:52;9.40;97.40
3705;DHT22;1868;48.918;9.438;2023-02-19T07:21:22;9.40;97.40
3705;DHT22;1868;48.918;9.438;2023-02-19T07:23:53;9.40;97.40
3705;DHT22;1868;48.918;9.438;2023-02-19T07:26:22;9.40;97.40
3705;DHT22;1868;48.918;9.438;2023-02-19T07:28:51;9.40;97.40
3705;DHT22;1868;48.918;9.438;2023-02-19T07:31:21;9.40;97.40
3705;DHT22;1868;48.918;9.438;2023-02-19T07:33:50;9.50;97.40
3705;DHT22;1868;48.918;9.438;2023-02-19T07:36:20;9.50;97.40
3705;DHT22;1868;48.918;9.438;2023-02-19T07:38:53;9.50;97.40
3705;DHT22;1868;48.918;9.438;2023-02-19T07:41:39;9.50;97.40
3705;DHT22;1868;48.918;9.438;2023-02-19T07:44:21;9.50;97.40
3705;DHT22;1868;48.918;9.438;2023-02-19T07:46:50;9.50;97.40
3705;DHT22;1868;48.918;9.438;2023-02-19T07:49:18;9.60;97.40
3705;DHT22;1868;48.918;9.438;2023-02-19T07:51:46;9.60;97.40
3705;DHT22;1868;48.918;9.438;2023-02-19T07:54:19;9.60;97.40
3705;DHT22;1868;48.918;9.438;2023-02-19T07:56:47;9.70;97.40
3705;DHT22;1868;48.918;9.438;2023-02-19T07:59:15;9.80;97.40
3705;DHT22;1868;48.918;9.438;2023-02-19T08:01:45;9.80;97.40
3705;DHT22;1868;48.918;9.438;2023-02-19T08:04:33;9.80;97.40
3705;DHT22;1868;48.918;9.438;2023-02-19T08:10:36;9.90;97.40
3705;DHT22;1868;48.918;9.438;2023-02-19T08:13:22;10.00;97.40
3705;DHT22;1868;48.918;9.438;2023-02-19T08:15:52;10.20;97.40
3705;DHT22;1868;48.918;9.438;2023-02-19T08:18:40;10.20;97.40
3705;DHT22;1868;48.918;9.438;2023-02-19T09:00:36;10.60;97.40
3705;DHT22;1868;48.918;9.438;2023-02-19T11:00:49;11.40;97.40
3705;DHT22;1868;48.918;9.438;2023-02-19T11:23:27;11.60;97.40
3705;DHT22;1868;48.918;9.438;2023-02-19T11:33:54;11.70;97.40
3705;DHT22;1868;48.918;9.438;2023-02-19T11:37:09;11.80;97.40
3705;DHT22;1868;48.918;9.438;2023-02-19T11:39:42;11.90;97.40
3705;DHT22;1868;48.918;9.438;2023-02-19T11:54:39;12.10;97.40
3705;DHT22;1868;48.918;9.438;2023-02-19T12:05:30;12.00;97.40
3705;DHT22;1868;48.918;9.438;2023-02-19T12:12:39;12.00;97.40
3705;DHT22;1868;48.918;9.438;2023-02-19T12:15:28;12.10;97.40
3705;DHT22;1868;48.918;9.438;2023-02-19T12:18:42;12.10;97.40
3705;DHT22;1868;48.918;9.438;2023-02-19T12:21:28;12.10;97.40
3705;DHT22;1868;48.918;9.438;2023-02-19T12:27:54;12.20;97.40
3705;DHT22;1868;48.918;9.438;2023-02-19T12:34:38;12.20;97.40
3705;DHT22;1868;48.918;9.438;2023-02-19T12:37:59;12.20;97.40
3705;DHT22;1868;48.918;9.438;2023-02-19T12:40:45;12.10;97.40
3705;DHT22;1868;48.918;9.438;2023-02-19T12:43:20;12.10;97.40
3705;DHT22;1868;48.918;9.438;2023-02-19T12:49:40;12.20;97.40
3705;DHT22;1868;48.918;9.438;2023-02-19T12:52:17;12.40;97.40
3705;DHT22;1868;48.918;9.438;2023-02-19T12:55:25;12.50;97.40
3705;DHT22;1868;48.918;9.438;2023-02-19T12:57:56;12.60;97.40
3705;DHT22;1868;48.918;9.438;2023-02-19T13:00:34;12.50;97.40
3705;DHT22;1868;48.918;9.438;2023-02-19T13:03:11;12.50;97.40
3705;DHT22;1868;48.918;9.438;2023-02-19T13:05:49;12.40;97.40
3705;DHT22;1868;48.918;9.438;2023-02-19T13:08:25;12.30;97.40
3705;DHT22;1868;48.918;9.438;2023-02-19T13:10:59;12.00;97.40
3705;DHT22;1868;48.918;9.438;2023-02-19T13:13:34;11.90;97.40
3705;DHT22;1868;48.918;9.438;2023-02-19T13:16:12;11.80;97.40
3705;DHT22;1868;48.918;9.438;2023-02-19T13:18:47;11.70;97.40
3705;DHT22;1868;48.918;9.438;2023-02-19T13:21:18;11.60;97.40
3705;DHT22;1868;48.918;9.438;2023-02-19T13:24:04;11.50;97.40
3705;DHT22;1868;48.918;9.438;2023-02-19T13:26:47;11.60;97.40
3705;DHT22;1868;48.918;9.438;2023-02-19T13:29:37;11.60;97.40
3705;DHT22;1868;48.918;9.438;2023-02-19T13:32:25;11.70;97.40
3705;DHT22;1868;48.918;9.438;2023-02-19T13:35:20;11.60;97.40
3705;DHT22;1868;48.918;9.438;2023-02-19T13:37:53;11.50;97.40
3705;DHT22;1868;48.918;9.438;2023-02-19T13:44:18;11.30;97.40
3705;DHT22;1868;48.918;9.438;2023-02-19T13:47:49;11.30;97.40
3705;DHT22;1868;48.918;9.438;2023-02-19T13:50:28;11.30;97.40
3705;DHT22;1868;48.918;9.438;2023-02-19T13:53:49;11.40;97.40
3705;DHT22;1868;48.918;9.438;2023-02-19T13:56:39;11.50;97.40
3705;DHT22;1868;48.918;9.438;2023-02-19T13:59:32;11.60;97.40
3705;DHT22;1868;48.918;9.438;2023-02-19T14:02:36;11.60;97.40
3705;DHT22;1868;48.918;9.438;2023-02-19T14:05:09;11.60;97.40
3705;DHT22;1868;48.918;9.438;2023-02-19T14:08:56;11.60;97.40
3705;DHT22;1868;48.918;9.438;2023-02-19T14:12:20;11.60;97.40
3705;DHT22;1868;48.918;9.438;2023-02-19T14:14:51;11.50;97.40
3705;DHT22;1868;48.918;9.438;2023-02-19T14:17:25;11.40;97.40
3705;DHT22;1868;48.918;9.438;2023-02-19T14:35:44;11.50;97.40
3705;DHT22;1868;48.918;9.438;2023-02-19T14:38:17;11.50;97.40
3705;DHT22;1868;48.918;9.438;2023-02-19T14:40:49;11.50;97.40
3705;DHT22;1868;48.918;9.438;2023-02-19T14:43:23;11.60;97.40
3705;DHT22;1868;48.918;9.438;2023-02-19T14:49:26;11.70;97.40
3705;DHT22;1868;48.918;9.438;2023-02-19T14:52:00;11.70;97.40
3705;DHT22;1868;48.918;9.438;2023-02-19T14:54:37;11.60;97.40
3705;DHT22;1868;48.918;9.438;2023-02-19T14:57:12;11.60;97.40
3705;DHT22;1868;48.918;9.438;2023-02-19T14:59:52;11.80;97.40
3705;DHT22;1868;48.918;9.438;2023-02-19T15:02:21;12.20;97.40
3705;DHT22;1868;48.918;9.438;2023-02-19T15:04:52;12.50;97.40
3705;DHT22;1868;48.918;9.438;2023-02-19T15:07:31;12.40;97.40
3705;DHT22;1868;48.918;9.438;2023-02-19T15:10:02;12.30;97.40
3705;DHT22;1868;48.918;9.438;2023-02-19T15:12:41;12.20;97.40
3705;DHT22;1868;48.918;9.438;2023-02-19T15:15:17;12.10;97.40
3705;DHT22;1868;48.918;9.438;2023-02-19T15:17:47;12.00;97.40
3705;DHT22;1868;48.918;9.438;2023-02-19T15:20:22;11.80;97.40
3705;DHT22;1868;48.918;9.438;2023-02-19T15:22:55;11.80;97.40
3705;DHT22;1868;48.918;9.438;2023-02-19T15:25:28;11.70;97.40
3705;DHT22;1868;48.918;9.438;2023-02-19T15:28:24;11.60;97.40
3705;DHT22;1868;48.918;9.438;2023-02-19T15:31:12;11.50;97.40
3705;DHT22;1868;48.918;9.438;2023-02-19T15:33:49;11.50;97.40
3705;DHT22;1868;48.918;9.438;2023-02-19T15:36:25;11.40;97.40
3705;DHT22;1868;48.918;9.438;2023-02-19T15:38:59;11.40;97.40
3705;DHT22;1868;48.918;9.438;2023-02-19T15:41:32;11.40;97.40
3705;DHT22;1868;48.918;9.438;2023-02-19T15:44:28;11.30;97.40
3705;DHT22;1868;48.918;9.438;2023-02-19T15:47:14;11.20;97.40
3705;DHT22;1868;48.918;9.438;2023-02-19T15:49:51;11.20;97.40
3705;DHT22;1868;48.918;9.438;2023-02-19T15:52:31;11.20;97.40
3705;DHT22;1868;48.918;9.438;2023-02-19T15:55:21;11.10;97.40
3705;DHT22;1868;48.918;9.438;2023-02-19T15:58:01;11.00;97.40
3705;DHT22;1868;48.918;9.438;2023-02-19T16:00:37;11.10;97.40
3705;DHT22;1868;48.918;9.438;2023-02-19T16:03:16;11.00;97.40
3705;DHT22;1868;48.918;9.438;2023-02-19T16:05:45;10.90;97.40
3705;DHT22;1868;48.918;9.438;2023-02-19T16:08:20;10.90;97.40
3705;DHT22;1868;48.918;9.438;2023-02-19T16:10:59;10.90;97.40
3705;DHT22;1868;48.918;9.438;2023-02-19T16:13:30;10.90;97.40
3705;DHT22;1868;48.918;9.438;2023-02-19T16:16:09;10.80;97.40
3705;DHT22;1868;48.918;9.438;2023-02-19T16:18:47;10.80;97.40
3705;DHT22;1868;48.918;9.438;2023-02-19T16:21:23;10.80;97.40
3705;DHT22;1868;48.918;9.438;2023-02-19T16:24:00;10.80;97.40
3705;DHT22;1868;48.918;9.438;2023-02-19T16:26:39;10.80;97.40
3705;DHT22;1868;48.918;9.438;2023-02-19T16:29:16;10.80;97.40
3705;DHT22;1868;48.918;9.438;2023-02-19T16:31:53;10.70;97.40
3705;DHT22;1868;48.918;9.438;2023-02-19T16:34:31;10.70;97.40
3705;DHT22;1868;48.918;9.438;2023-02-19T16:37:02;10.70;97.40
3705;DHT22;1868;48.918;9.438;2023-02-19T16:39:32;10.60;97.40
3705;DHT22;1868;48.918;9.438;2023-02-19T16:42:17;10.60;97.40
3705;DHT22;1868;48.918;9.438;2023-02-19T16:44:46;10.50;97.40
3705;DHT22;1868;48.918;9.438;2023-02-19T16:47:27;10.50;97.40
3705;DHT22;1868;48.918;9.438;2023-02-19T16:50:01;10.50;97.40
3705;DHT22;1868;48.918;9.438;2023-02-19T16:52:33;10.50;97.40
3705;DHT22;1868;48.918;9.438;2023-02-19T16:55:11;10.40;97.40
3705;DHT22;1868;48.918;9.438;2023-02-19T16:57:42;10.40;97.40
3705;DHT22;1868;48.918;9.438;2023-02-19T17:00:15;10.30;97.40
3705;DHT22;1868;48.918;9.438;2023-02-19T17:02:46;10.30;97.40
3705;DHT22;1868;48.918;9.438;2023-02-19T17:05:15;10.30;97.40
3705;DHT22;1868;48.918;9.438;2023-02-19T17:07:44;10.30;97.40
3705;DHT22;1868;48.918;9.438;2023-02-19T17:10:14;10.20;97.40
3705;DHT22;1868;48.918;9.438;2023-02-19T17:12:45;10.20;97.40
3705;DHT22;1868;48.918;9.438;2023-02-19T17:15:13;10.20;97.40
3705;DHT22;1868;48.918;9.438;2023-02-19T17:17:42;10.20;97.40
3705;DHT22;1868;48.918;9.438;2023-02-19T17:20:19;10.30;97.40
3705;DHT22;1868;48.918;9.438;2023-02-19T17:22:49;10.20;97.40
3705;DHT22;1868;48.918;9.438;2023-02-19T17:25:18;10.20;97.40
3705;DHT22;1868;48.918;9.438;2023-02-19T17:27:48;10.10;97.40
3705;DHT22;1868;48.918;9.438;2023-02-19T17:30:49;10.10;97.40
3705;DHT22;1868;48.918;9.438;2023-02-19T17:33:14;10.10;97.40
3705;DHT22;1868;48.918;9.438;2023-02-19T17:35:42;10.10;97.40
3705;DHT22;1868;48.918;9.438;2023-02-19T17:38:12;10.00;97.40
3705;DHT22;1868;48.918;9.438;2023-02-19T17:41:01;10.10;97.40
3705;DHT22;1868;48.918;9.438;2023-02-19T17:43:41;10.10;97.40
3705;DHT22;1868;48.918;9.438;2023-02-19T17:46:13;10.10;97.40
3705;DHT22;1868;48.918;9.438;2023-02-19T17:48:42;10.00;97.40
3705;DHT22;1868;48.918;9.438;2023-02-19T17:51:47;10.00;97.40
3705;DHT22;1868;48.918;9.438;2023-02-19T17:54:15;10.00;97.40
3705;DHT22;1868;48.918;9.438;2023-02-19T17:56:52;10.00;97.40
3705;DHT22;1868;48.918;9.438;2023-02-19T17:59:22;10.00;97.40
3705;DHT22;1868;48.918;9.438;2023-02-19T18:01:51;9.90;97.40
3705;DHT22;1868;48.918;9.438;2023-02-19T18:04:19;9.90;97.40
3705;DHT22;1868;48.918;9.438;2023-02-19T18:06:48;9.90;97.40
3705;DHT22;1868;48.918;9.438;2023-02-19T18:09:16;9.90;97.40
3705;DHT22;1868;48.918;9.438;2023-02-19T18:11:45;9.90;97.40
3705;DHT22;1868;48.918;9.438;2023-02-19T18:14:13;9.90;97.40
3705;DHT22;1868;48.918;9.438;2023-02-19T18:16:47;9.90;97.40
3705;DHT22;1868;48.918;9.438;2023-02-19T18:19:16;9.90;97.40
3705;DHT22;1868;48.918;9.438;2023-02-19T18:21:45;9.90;97.40
3705;DHT22;1868;48.918;9.438;2023-02-19T18:24:14;9.90;97.40
3705;DHT22;1868;48.918;9.438;2023-02-19T18:26:43;9.80;97.40
3705;DHT22;1868;48.918;9.438;2023-02-19T18:29:12;9.80;97.40
3705;DHT22;1868;48.918;9.438;2023-02-19T18:32:27;9.80;97.40
3705;DHT22;1868;48.918;9.438;2023-02-19T18:35:37;9.80;97.40
3705;DHT22;1868;48.918;9.438;2023-02-19T18:38:05;9.90;97.40
3705;DHT22;1868;48.918;9.438;2023-02-19T18:40:34;9.80;97.40
3705;DHT22;1868;48.918;9.438;2023-02-19T18:43:03;9.80;97.40
3705;DHT22;1868;48.918;9.438;2023-02-19T18:45:32;9.80;97.40
3705;DHT22;1868;48.918;9.438;2023-02-19T18:48:05;9.90;97.40
3705;DHT22;1868;48.918;9.438;2023-02-19T18:58:43;9.90;97.40
3705;DHT22;1868;48.918;9.438;2023-02-19T19:02:03;9.90;97.40
3705;DHT22;1868;48.918;9.438;2023-02-19T19:04:35;9.90;97.40
3705;DHT22;1868;48.918;9.438;2023-02-19T19:07:20;9.90;97.40
3705;DHT22;1868;48.918;9.438;2023-02-19T19:09:48;9.90;97.40
3705;DHT22;1868;48.918;9.438;2023-02-19T19:12:16;9.90;97.40
3705;DHT22;1868;48.918;9.438;2023-02-19T19:15:11;9.80;97.40
3705;DHT22;1868;48.918;9.438;2023-02-19T19:17:57;9.80;97.40
3705;DHT22;1868;48.918;9.438;2023-02-19T19:21:04;9.80;97.40
3705;DHT22;1868;48.918;9.438;2023-02-19T19:23:35;9.80;97.40
3705;DHT22;1868;48.918;9.438;2023-02-19T19:26:20;9.80;97.40
3705;DHT22;1868;48.918;9.438;2023-02-19T19:29:09;9.80;97.40
3705;DHT22;1868;48.918;9.438;2023-02-19T19:31:38;9.80;97.40
3705;DHT22;1868;48.918;9.438;2023-02-19T19:34:32;9.70;97.40
3705;DHT22;1868;48.918;9.438;2023-02-19T19:37:02;9.80;97.40
3705;DHT22;1868;48.918;9.438;2023-02-19T19:39:41;9.80;97.40
3705;DHT22;1868;48.918;9.438;2023-02-19T19:42:12;9.70;97.40
3705;DHT22;1868;48.918;9.438;2023-02-19T19:44:42;9.80;97.40
3705;DHT22;1868;48.918;9.438;2023-02-19T21:08:22;9.40;97.40
3705;DHT22;1868;48.918;9.438;2023-02-19T21:10:50;9.40;97.40
3705;DHT22;1868;48.918;9.438;2023-02-19T21:13:21;9.40;97.40
3705;DHT22;1868;48.918;9.438;2023-02-19T21:15:50;9.40;97.40
3705;DHT22;1868;48.918;9.438;2023-02-19T21:35:44;9.40;97.40
3705;DHT22;1868;48.918;9.438;2023-02-19T21:38:12;9.40;97.40
3705;DHT22;1868;48.918;9.438;2023-02-19T21:40:41;9.40;97.40
3705;DHT22;1868;48.918;9.438;2023-02-19T21:43:09;9.50;97.40
3705;DHT22;1868;48.918;9.438;2023-02-19T21:45:40;9.40;97.40
